createdAt,value
2023-04-21T00:00:47.775Z,96358.06
2023-04-21T00:03:15.643Z,96359.19
2023-04-21T00:05:44.981Z,96352.91
2023-04-21T00:08:12.623Z,96362.78
2023-04-21T00:10:40.438Z,96372.31
2023-04-21T00:13:08.278Z,96369.44
2023-04-21T00:15:36.262Z,96367.94
2023-04-21T00:18:04.766Z,96360.97
2023-04-21T00:20:32.938Z,96364.41
2023-04-21T00:23:03.630Z,96364.38
2023-04-21T00:25:34.313Z,96368.59
2023-04-21T00:28:03.958Z,96367.91
2023-04-21T00:30:31.575Z,96374.56
2023-04-21T00:32:59.301Z,96372.59
2023-04-21T00:35:27.204Z,96372.28
2023-04-21T00:37:54.819Z,96369.22
2023-04-21T00:40:24.287Z,96365.84
2023-04-21T00:42:52.091Z,96360.84
2023-04-21T00:45:22.118Z,96361.16
2023-04-21T00:47:50.015Z,96353.22
2023-04-21T00:50:17.854Z,96351.75
2023-04-21T00:52:47.070Z,96351.28
2023-04-21T00:55:15.565Z,96347.22
2023-04-21T00:57:45.241Z,96347.22
2023-04-21T01:00:14.883Z,96334.28
2023-04-21T01:02:43.037Z,96321.34
2023-04-21T01:05:12.198Z,96313.56
2023-04-21T01:07:40.676Z,96312.72
2023-04-21T01:10:10.073Z,96313.88
2023-04-21T01:12:45.557Z,96307.72
2023-04-21T01:15:14.216Z,96317.09
2023-04-21T01:17:42.270Z,96308.69
2023-04-21T01:20:13.462Z,96308.03
2023-04-21T01:22:44.739Z,96310.97
2023-04-21T01:25:12.446Z,96312.56
2023-04-21T01:27:40.347Z,96303.19
2023-04-21T01:30:09.990Z,96309.81
2023-04-21T01:32:37.960Z,96307.53
2023-04-21T01:35:06.669Z,96304.16
2023-04-21T01:37:35.262Z,96307.72
2023-04-21T01:40:07.004Z,96298.97
2023-04-21T01:42:36.105Z,96312.91
2023-04-21T01:45:03.956Z,96311.75
2023-04-21T01:47:31.629Z,96315.81
2023-04-21T01:49:59.465Z,96316.13
2023-04-21T01:52:27.235Z,96319.72
2023-04-21T01:54:55.692Z,96306.75
2023-04-21T01:57:25.012Z,96308.06
2023-04-21T01:59:52.746Z,96303.19
2023-04-21T02:02:20.389Z,96298.19
2023-04-21T02:04:48.128Z,96296.53
2023-04-21T02:07:15.813Z,96293.16
2023-04-21T02:09:43.731Z,96289.13
2023-04-21T02:12:12.380Z,96287.78
2023-04-21T02:14:41.631Z,96285.03
2023-04-21T02:17:12.637Z,96280.16
2023-04-21T02:19:40.922Z,96284.53
2023-04-21T02:22:10.638Z,96275.13
2023-04-21T02:24:38.210Z,96278.22
2023-04-21T02:27:06.594Z,96281.75
2023-04-21T02:29:34.493Z,96278.19
2023-04-21T02:32:14.292Z,96271.38
2023-04-21T02:34:49.664Z,96265.06
2023-04-21T02:37:17.292Z,96261.97
2023-04-21T02:39:44.878Z,96272.19
2023-04-21T02:42:12.470Z,96267.34
2023-04-21T02:44:40.019Z,96261.00
2023-04-21T02:47:08.941Z,96254.88
2023-04-21T02:49:40.791Z,96241.63
2023-04-21T02:52:08.331Z,96245.19
2023-04-21T02:54:35.956Z,96265.41
2023-04-21T02:57:03.647Z,96258.78
2023-04-21T02:59:31.191Z,96259.22
2023-04-21T03:01:58.758Z,96266.84
2023-04-21T03:04:27.892Z,96263.94
2023-04-21T03:06:55.690Z,96259.09
2023-04-21T03:09:23.274Z,96268.81
2023-04-21T03:11:50.836Z,96278.38
2023-04-21T03:14:18.613Z,96271.91
2023-04-21T03:16:47.397Z,96270.78
2023-04-21T03:19:15.000Z,96262.53
2023-04-21T03:21:43.924Z,96263.03
2023-04-21T03:24:12.052Z,96263.19
2023-04-21T03:26:40.103Z,96265.59
2023-04-21T03:29:07.713Z,96272.59
2023-04-21T03:31:35.362Z,96264.16
2023-04-21T03:34:02.980Z,96264.00
2023-04-21T03:36:31.184Z,96265.28
2023-04-21T03:39:20.588Z,96270.78
2023-04-21T03:41:48.135Z,96266.91
2023-04-21T03:44:15.801Z,96269.50
2023-04-21T03:46:43.334Z,96255.88
2023-04-21T03:49:10.941Z,96254.91
2023-04-21T03:51:38.490Z,96264.66
2023-04-21T03:54:08.442Z,96258.81
2023-04-21T03:56:36.136Z,96268.03
2023-04-21T03:59:03.742Z,96270.81
2023-04-21T04:01:31.483Z,96269.53
2023-04-21T04:03:59.243Z,96266.91
2023-04-21T04:06:28.426Z,96278.25
2023-04-21T04:08:55.942Z,96282.13
2023-04-21T04:11:24.961Z,96278.91
2023-04-21T04:13:52.440Z,96276.59
2023-04-21T04:16:20.060Z,96280.94
2023-04-21T04:18:47.642Z,96279.88
2023-04-21T04:21:15.178Z,96291.16
2023-04-21T04:23:42.732Z,96293.28
2023-04-21T04:26:11.356Z,96290.84
2023-04-21T04:28:40.313Z,96301.19
2023-04-21T04:31:07.922Z,96307.66
2023-04-21T04:33:35.491Z,96311.75
2023-04-21T04:36:03.051Z,96315.44
2023-04-21T04:38:30.597Z,96307.97
2023-04-21T04:40:59.063Z,96315.41
2023-04-21T04:43:26.652Z,96300.22
2023-04-21T04:45:55.571Z,96300.22
2023-04-21T04:48:24.371Z,96296.97
2023-04-21T04:50:51.969Z,96298.91
2023-04-21T04:53:19.561Z,96301.16
2023-04-21T04:55:47.218Z,96307.78
2023-04-21T04:58:14.853Z,96317.31
2023-04-21T05:00:42.450Z,96321.19
2023-04-21T05:03:11.527Z,96325.09
2023-04-21T05:05:39.306Z,96319.91
2023-04-21T05:08:07.138Z,96332.19
2023-04-21T05:10:34.777Z,96330.25
2023-04-21T05:13:02.480Z,96331.91
2023-04-21T05:15:30.205Z,96332.38
2023-04-21T05:17:57.818Z,96327.06
2023-04-21T05:20:26.740Z,96316.13
2023-04-21T05:22:54.227Z,96332.63
2023-04-21T05:25:21.822Z,96349.78
2023-04-21T05:27:49.902Z,96360.81
2023-04-21T05:30:17.465Z,96355.97
2023-04-21T05:32:45.183Z,96352.72
2023-04-21T05:35:12.860Z,96361.31
2023-04-21T05:37:42.011Z,96363.75
2023-04-21T05:40:10.973Z,96365.22
2023-04-21T05:42:38.741Z,96361.78
2023-04-21T05:45:07.625Z,96347.72
2023-04-21T05:47:35.475Z,96338.63
2023-04-21T05:50:03.153Z,96336.53
2023-04-21T05:52:35.352Z,96343.00
2023-04-21T05:55:04.792Z,96338.63
2023-04-21T05:57:32.603Z,96330.69
2023-04-21T06:00:00.659Z,96341.88
2023-04-21T06:02:28.432Z,96336.84
2023-04-21T06:04:56.514Z,96331.50
2023-04-21T06:07:24.496Z,96322.06
2023-04-21T06:09:52.309Z,96326.09
2023-04-21T06:12:21.436Z,96329.28
2023-04-21T06:14:49.018Z,96323.59
2023-04-21T06:17:18.622Z,96331.47
2023-04-21T06:19:46.488Z,96323.63
2023-04-21T06:22:14.353Z,96326.94
2023-04-21T06:24:42.154Z,96337.38
2023-04-21T06:27:12.830Z,96338.88
2023-04-21T06:29:43.340Z,96338.66
2023-04-21T06:32:11.671Z,96326.06
2023-04-21T06:34:40.054Z,96324.03
2023-04-21T06:37:07.948Z,96320.59
2023-04-21T06:39:35.756Z,96327.69
2023-04-21T06:42:03.370Z,96317.38
2023-04-21T06:44:32.378Z,96308.88
2023-04-21T06:47:01.756Z,96304.59
2023-04-21T06:49:29.563Z,96311.69
2023-04-21T06:51:57.082Z,96300.91
2023-04-21T06:54:24.696Z,96300.19
2023-04-21T06:56:52.483Z,96295.88
2023-04-21T06:59:20.748Z,96291.41
2023-04-21T07:01:52.413Z,96291.16
2023-04-21T07:04:22.349Z,96287.44
2023-04-21T07:06:50.424Z,96285.97
2023-04-21T07:09:18.483Z,96291.97
2023-04-21T07:11:46.586Z,96293.28
2023-04-21T07:14:14.400Z,96290.41
2023-04-21T07:16:42.263Z,96288.13
2023-04-21T07:19:10.092Z,96284.59
2023-04-21T07:21:39.251Z,96285.06
2023-04-21T07:24:07.342Z,96286.38
2023-04-21T07:26:35.240Z,96282.84
2023-04-21T07:29:03.131Z,96280.72
2023-04-21T07:31:30.783Z,96280.94
2023-04-21T07:33:58.591Z,96279.94
2023-04-21T07:36:30.562Z,96277.78
2023-04-21T07:39:00.249Z,96279.19
2023-04-21T07:41:29.410Z,96267.53
2023-04-21T07:43:57.178Z,96278.16
2023-04-21T07:46:30.223Z,96276.53
2023-04-21T07:48:57.967Z,96275.56
2023-04-21T07:51:25.894Z,96275.78
2023-04-21T07:53:53.500Z,96271.63
2023-04-21T07:56:23.049Z,96272.66
2023-04-21T07:58:50.868Z,96268.50
2023-04-21T08:01:18.590Z,96273.56
2023-04-21T08:03:46.451Z,96265.59
2023-04-21T08:06:14.435Z,96272.88
2023-04-21T08:08:42.718Z,96276.75
2023-04-21T08:11:11.047Z,96274.19
2023-04-21T08:13:40.516Z,96273.09
2023-04-21T08:16:08.786Z,96280.19
2023-04-21T08:18:36.764Z,96272.84
2023-04-21T08:21:04.875Z,96271.75
2023-04-21T08:23:32.924Z,96266.16
2023-04-21T08:26:00.844Z,96266.97
2023-04-21T08:28:28.781Z,96266.13
2023-04-21T08:30:58.012Z,96263.28
2023-04-21T08:33:26.302Z,96273.72
2023-04-21T08:36:05.461Z,96264.03
2023-04-21T08:38:38.094Z,96267.78
2023-04-21T08:41:06.429Z,96257.97
2023-04-21T08:43:34.466Z,96266.06
2023-04-21T08:46:07.455Z,96271.19
2023-04-21T08:48:37.437Z,96260.75
2023-04-21T08:51:08.813Z,96267.75
2023-04-21T08:53:37.115Z,96270.91
2023-04-21T08:58:36.949Z,96275.09
2023-04-21T09:01:06.588Z,96272.06
2023-04-21T09:03:34.925Z,96271.84
2023-04-21T09:06:05.888Z,96275.47
2023-04-21T09:08:35.003Z,96282.91
2023-04-21T09:11:03.344Z,96279.69
2023-04-21T09:13:33.082Z,96281.25
2023-04-21T09:16:02.748Z,96279.56
2023-04-21T09:18:36.010Z,96288.47
2023-04-21T09:21:08.356Z,96278.03
2023-04-21T09:23:47.715Z,96284.94
2023-04-21T09:26:16.902Z,96285.13
2023-04-21T09:28:45.549Z,96283.94
2023-04-21T09:31:21.260Z,96280.72
2023-04-21T09:36:26.355Z,96285.84
2023-04-21T09:39:25.210Z,96277.38
2023-04-21T09:41:46.808Z,96278.06
2023-04-21T09:44:14.603Z,96271.97
2023-04-21T09:46:44.774Z,96276.72
2023-04-21T09:49:17.450Z,96279.59
2023-04-21T09:52:10.287Z,96276.00
2023-04-21T09:54:35.397Z,96281.25
2023-04-21T09:57:05.311Z,96272.81
2023-04-21T09:59:36.473Z,96278.41
2023-04-21T10:02:10.811Z,96268.22
2023-04-21T10:04:45.293Z,96279.19
2023-04-21T10:07:13.644Z,96281.41
2023-04-21T10:09:46.460Z,96273.34
2023-04-21T10:12:15.644Z,96269.69
2023-04-21T10:14:43.392Z,96274.84
2023-04-21T10:17:12.362Z,96266.81
2023-04-21T10:19:50.541Z,96264.81
2023-04-21T10:22:29.664Z,96260.50
2023-04-21T10:24:58.752Z,96260.22
2023-04-21T10:27:33.939Z,96244.88
2023-04-21T10:30:02.021Z,96252.13
2023-04-21T10:32:41.360Z,96255.06
2023-04-21T10:35:15.333Z,96248.66
2023-04-21T10:37:44.184Z,96240.66
2023-04-21T10:43:07.304Z,96226.59
2023-04-21T10:45:35.076Z,96234.06
2023-04-21T10:48:04.026Z,96239.94
2023-04-21T10:50:33.372Z,96233.63
2023-04-21T10:53:11.101Z,96238.91
2023-04-21T10:55:42.527Z,96245.19
2023-04-21T10:58:11.454Z,96253.28
2023-04-21T11:00:40.844Z,96244.72
2023-04-21T11:03:09.191Z,96253.22
2023-04-21T11:05:46.252Z,96248.75
2023-04-21T11:08:18.781Z,96236.78
2023-04-21T11:10:51.979Z,96224.63
2023-04-21T11:13:22.729Z,96236.16
2023-04-21T11:16:05.943Z,96219.56
2023-04-21T11:18:41.385Z,96227.69
2023-04-21T11:21:13.404Z,96210.69
2023-04-21T11:23:42.290Z,96223.22
2023-04-21T11:26:09.923Z,96220.38
2023-04-21T11:28:38.071Z,96208.03
2023-04-21T11:31:06.077Z,96203.16
2023-04-21T11:33:37.234Z,96197.63
2023-04-21T11:36:05.988Z,96202.59
2023-04-21T11:38:40.781Z,96200.41
2023-04-21T11:41:09.609Z,96198.25
2023-04-21T11:43:37.941Z,96196.06
2023-04-21T11:46:17.822Z,96199.38
2023-04-21T11:48:46.100Z,96195.34
2023-04-21T11:51:20.730Z,96202.41
2023-04-21T11:53:51.350Z,96193.53
2023-04-21T11:56:21.792Z,96187.06
2023-04-21T11:58:52.108Z,96195.69
2023-04-21T12:01:20.822Z,96195.09
2023-04-21T12:03:53.052Z,96194.28
2023-04-21T12:06:24.413Z,96197.69
2023-04-21T12:08:58.484Z,96204.66
2023-04-21T12:11:26.162Z,96195.13
2023-04-21T12:13:53.702Z,96189.78
2023-04-21T12:16:21.278Z,96194.19
2023-04-21T12:18:49.469Z,96189.84
2023-04-21T12:21:17.408Z,96196.56
2023-04-21T12:23:45.528Z,96193.25
2023-04-21T12:26:14.419Z,96195.69
2023-04-21T12:28:41.965Z,96192.50
2023-04-21T12:31:09.520Z,96177.94
2023-04-21T12:33:37.191Z,96186.66
2023-04-21T12:36:05.231Z,96187.72
2023-04-21T12:38:32.780Z,96180.03
2023-04-21T12:41:00.375Z,96188.84
2023-04-21T12:43:33.319Z,96182.13
2023-04-21T12:46:01.841Z,96173.53
2023-04-21T12:48:40.623Z,96172.03
2023-04-21T12:51:20.248Z,96172.16
2023-04-21T12:53:53.435Z,96161.13
2023-04-21T12:56:22.311Z,96163.31
2023-04-21T12:59:01.968Z,96168.69
2023-04-21T13:01:33.714Z,96162.84
2023-04-21T13:04:02.127Z,96165.47
2023-04-21T13:06:31.006Z,96166.28
2023-04-21T13:08:58.591Z,96165.47
2023-04-21T13:11:26.305Z,96158.13
2023-04-21T13:13:56.443Z,96152.94
2023-04-21T13:16:25.138Z,96159.91
2023-04-21T13:18:56.747Z,96147.31
2023-04-21T13:21:30.084Z,96153.13
2023-04-21T13:24:00.005Z,96145.47
2023-04-21T13:26:30.660Z,96135.63
2023-04-21T13:29:00.115Z,96141.47
2023-04-21T13:31:28.135Z,96133.06
2023-04-21T13:33:56.492Z,96134.19
2023-04-21T13:36:24.605Z,96135.31
2023-04-21T13:38:53.920Z,96132.81
2023-04-21T13:41:21.652Z,96141.97
2023-04-21T13:43:49.903Z,96133.47
2023-04-21T13:46:21.110Z,96134.75
2023-04-21T13:48:51.017Z,96123.66
2023-04-21T13:51:19.884Z,96130.53
2023-04-21T13:53:47.980Z,96124.22
2023-04-21T13:56:15.750Z,96123.66
2023-04-21T13:58:46.557Z,96112.53
2023-04-21T14:01:14.900Z,96117.25
2023-04-21T14:03:46.968Z,96110.88
2023-04-21T14:06:14.870Z,96117.72
2023-04-21T14:08:42.490Z,96116.22
2023-04-21T14:11:10.080Z,96114.38
2023-04-21T14:13:47.804Z,96105.84
2023-04-21T14:16:19.842Z,96103.66
2023-04-21T14:18:49.284Z,96103.78
2023-04-21T14:21:19.935Z,96095.31
2023-04-21T14:23:48.047Z,96090.06
2023-04-21T14:26:16.580Z,96098.53
2023-04-21T14:28:46.812Z,96090.16
2023-04-21T14:31:22.404Z,96087.53
2023-04-21T14:33:51.767Z,96082.25
2023-04-21T14:36:19.379Z,96081.69
2023-04-21T14:38:47.118Z,96078.25
2023-04-21T14:41:14.711Z,96076.41
2023-04-21T14:43:42.235Z,96073.78
2023-04-21T14:46:09.922Z,96069.53
2023-04-21T14:48:37.660Z,96071.94
2023-04-21T14:51:09.303Z,96074.34
2023-04-21T14:53:36.905Z,96063.22
2023-04-21T14:56:04.735Z,96071.59
2023-04-21T14:58:32.280Z,96071.06
2023-04-21T15:00:59.979Z,96077.84
2023-04-21T15:03:27.610Z,96073.03
2023-04-21T15:05:55.391Z,96070.88
2023-04-21T15:08:24.356Z,96074.53
2023-04-21T15:10:52.115Z,96074.53
2023-04-21T15:13:19.716Z,96067.66
2023-04-21T15:15:47.222Z,96069.75
2023-04-21T15:18:14.810Z,96075.50
2023-04-21T15:20:45.829Z,96068.59
2023-04-21T15:23:13.750Z,96061.75
2023-04-21T15:25:42.965Z,96070.69
2023-04-21T15:28:11.234Z,96067.72
2023-04-21T15:30:39.508Z,96057.41
2023-04-21T15:33:07.882Z,96064.28
2023-04-21T15:35:36.538Z,96059.00
2023-04-21T15:38:04.805Z,96055.91
2023-04-21T15:40:33.116Z,96053.28
2023-04-21T15:43:03.464Z,96060.63
2023-04-21T15:45:31.282Z,96056.63
2023-04-21T15:47:58.964Z,96054.22
2023-04-21T15:50:26.741Z,96057.06
2023-04-21T15:52:54.794Z,96055.72
2023-04-21T15:55:23.040Z,96054.13
2023-04-21T15:57:50.606Z,96051.94
2023-04-21T16:00:20.021Z,96055.88
2023-04-21T16:02:48.634Z,96051.88
2023-04-21T16:05:17.104Z,96054.50
2023-04-21T16:07:44.793Z,96053.72
2023-04-21T16:10:12.892Z,96051.53
2023-04-21T16:12:40.559Z,96050.16
2023-04-21T16:17:45.320Z,96047.97
2023-04-21T16:20:13.848Z,96041.69
2023-04-21T16:22:41.565Z,96043.84
2023-04-21T16:25:12.238Z,96039.63
2023-04-21T16:27:39.989Z,96039.84
2023-04-21T16:30:09.688Z,96037.00
2023-04-21T16:32:37.539Z,96032.28
2023-04-21T16:35:08.581Z,96035.94
2023-04-21T16:37:38.089Z,96032.28
2023-04-21T16:40:07.258Z,96033.88
2023-04-21T16:42:35.224Z,96036.50
2023-04-21T16:45:04.660Z,96034.94
2023-04-21T16:47:33.874Z,96041.69
2023-04-21T16:50:01.613Z,96039.75
2023-04-21T16:52:30.609Z,96039.41
2023-04-21T16:54:58.182Z,96032.78
2023-04-21T16:57:25.885Z,96033.00
2023-04-21T16:59:53.841Z,96030.34
2023-04-21T17:02:21.598Z,96025.91
2023-04-21T17:04:49.153Z,96027.28
2023-04-21T17:07:16.873Z,96026.22
2023-04-21T17:09:45.847Z,96033.34
2023-04-21T17:12:13.339Z,96029.13
2023-04-21T17:14:40.935Z,96024.06
2023-04-21T17:17:08.612Z,96023.50
2023-04-21T17:19:36.524Z,96024.06
2023-04-21T17:22:04.116Z,96021.91
2023-04-21T17:24:44.908Z,96028.22
2023-04-21T17:27:20.836Z,96032.34
2023-04-21T17:29:48.485Z,96039.66
2023-04-21T17:32:16.187Z,96039.34
2023-04-21T17:34:44.004Z,96041.63
2023-04-21T17:37:11.730Z,96041.28
2023-04-21T17:39:39.836Z,96051.25
2023-04-21T17:42:07.686Z,96048.31
2023-04-21T17:44:37.340Z,96054.28
2023-04-21T17:47:08.343Z,96049.66
2023-04-21T17:49:37.459Z,96053.00
2023-04-21T17:52:06.967Z,96046.84
2023-04-21T17:54:34.978Z,96049.34
2023-04-21T17:57:03.789Z,96046.63
2023-04-21T17:59:31.719Z,96047.88
2023-04-21T18:02:00.964Z,96051.78
2023-04-21T18:04:30.694Z,96059.53
2023-04-21T18:06:58.952Z,96056.59
2023-04-21T18:09:27.022Z,96060.69
2023-04-21T18:11:54.966Z,96058.97
2023-04-21T18:14:23.336Z,96058.63
2023-04-21T18:16:50.937Z,96058.50
2023-04-21T18:19:19.833Z,96059.19
2023-04-21T18:21:47.529Z,96072.00
2023-04-21T18:24:15.684Z,96066.00
2023-04-21T18:26:43.865Z,96063.50
2023-04-21T18:29:11.468Z,96062.56
2023-04-21T18:31:39.380Z,96074.00
2023-04-21T18:34:08.607Z,96072.59
2023-04-21T18:36:38.607Z,96071.22
2023-04-21T18:39:06.411Z,96073.50
2023-04-21T18:41:33.995Z,96076.56
2023-04-21T18:44:01.553Z,96075.66
2023-04-21T18:46:29.189Z,96082.00
2023-04-21T18:48:56.742Z,96074.22
2023-04-21T18:51:24.943Z,96089.88
2023-04-21T18:53:53.856Z,96089.94
2023-04-21T18:56:21.372Z,96089.59
2023-04-21T18:58:48.896Z,96100.53
2023-04-21T19:01:16.566Z,96099.97
2023-04-21T19:03:44.760Z,96099.81
2023-04-21T19:06:12.567Z,96105.72
2023-04-21T19:08:42.846Z,96109.00
2023-04-21T19:11:14.668Z,96106.25
2023-04-21T19:13:42.428Z,96100.84
2023-04-21T19:16:11.726Z,96106.16
2023-04-21T19:18:39.436Z,96111.50
2023-04-21T19:21:07.157Z,96098.66
2023-04-21T19:23:34.812Z,96109.44
2023-04-21T19:26:05.018Z,96106.50
2023-04-21T19:28:34.028Z,96107.22
2023-04-21T19:31:01.583Z,96113.09
2023-04-21T19:33:29.570Z,96118.22
2023-04-21T19:35:58.271Z,96119.28
2023-04-21T19:38:26.882Z,96114.53
2023-04-21T19:40:54.918Z,96110.53
2023-04-21T19:43:22.702Z,96114.25
2023-04-21T19:45:51.960Z,96117.72
2023-04-21T19:48:19.641Z,96122.19
2023-04-21T19:50:47.334Z,96125.66
2023-04-21T19:53:15.056Z,96123.28
2023-04-21T19:55:42.775Z,96116.28
2023-04-21T19:58:10.520Z,96123.75
2023-04-21T20:00:38.506Z,96128.63
2023-04-21T20:03:08.681Z,96123.81
2023-04-21T20:05:36.424Z,96115.72
2023-04-21T20:08:04.251Z,96124.00
2023-04-21T20:10:31.832Z,96123.84
2023-04-21T20:13:00.654Z,96119.00
2023-04-21T20:15:28.682Z,96121.47
2023-04-21T20:17:57.205Z,96117.84
2023-04-21T20:20:26.557Z,96127.97
2023-04-21T20:22:54.395Z,96117.88
2023-04-21T20:25:22.164Z,96121.72
2023-04-21T20:27:50.485Z,96121.94
2023-04-21T20:30:19.094Z,96119.75
2023-04-21T20:32:47.508Z,96122.78
2023-04-21T20:35:16.955Z,96120.16
2023-04-21T20:37:47.487Z,96114.34
2023-04-21T20:40:16.039Z,96118.97
2023-04-21T20:42:45.381Z,96119.59
2023-04-21T20:45:13.468Z,96117.19
2023-04-21T20:47:41.838Z,96120.78
2023-04-21T20:50:10.873Z,96132.88
2023-04-21T20:52:39.342Z,96119.78
2023-04-21T20:55:09.397Z,96129.84
2023-04-21T20:57:38.032Z,96128.88
2023-04-21T21:00:07.170Z,96131.91
2023-04-21T21:02:34.887Z,96127.69
2023-04-21T21:05:02.570Z,96118.03
2023-04-21T21:07:31.326Z,96120.03
2023-04-21T21:09:58.935Z,96117.84
2023-04-21T21:12:27.837Z,96118.03
2023-04-21T21:14:55.517Z,96111.19
2023-04-21T21:17:23.146Z,96113.81
2023-04-21T21:19:50.809Z,96111.19
2023-04-21T21:22:18.381Z,96114.22
2023-04-21T21:24:46.602Z,96117.25
2023-04-21T21:27:14.173Z,96111.19
2023-04-21T21:29:43.255Z,96110.41
2023-04-21T21:32:10.972Z,96110.41
2023-04-21T21:34:38.559Z,96117.25
2023-04-21T21:37:06.102Z,96111.19
2023-04-21T21:39:33.670Z,96112.81
2023-04-21T21:42:01.367Z,96117.25
2023-04-21T21:44:28.944Z,96112.03
2023-04-21T21:46:58.460Z,96120.69
2023-04-21T21:49:26.140Z,96111.00
2023-04-21T21:51:54.603Z,96110.00
2023-04-21T21:54:22.229Z,96104.16
2023-04-21T21:56:50.129Z,96108.16
2023-04-21T21:59:17.739Z,96108.56
2023-04-21T22:01:45.323Z,96101.13
2023-04-21T22:04:14.365Z,96100.16
2023-04-21T22:06:42.371Z,96101.16
2023-04-21T22:09:09.973Z,96090.28
2023-04-21T22:11:37.718Z,96096.72
2023-04-21T22:14:18.506Z,96096.72
2023-04-21T22:16:50.569Z,96091.47
2023-04-21T22:19:19.744Z,96099.53
2023-04-21T22:21:47.390Z,96101.34
2023-04-21T22:24:15.355Z,96107.16
2023-04-21T22:26:43.719Z,96110.63
2023-04-21T22:29:11.410Z,96114.22
2023-04-21T22:31:39.000Z,96112.03
2023-04-21T22:34:06.563Z,96109.81
2023-04-21T22:36:35.896Z,96111.81
2023-04-21T22:39:04.274Z,96112.84
2023-04-21T22:41:31.835Z,96113.63
2023-04-21T22:43:59.668Z,96115.63
2023-04-21T22:46:31.945Z,96122.06
2023-04-21T22:48:59.885Z,96120.25
2023-04-21T22:51:27.812Z,96120.88
2023-04-21T22:53:56.764Z,96132.75
2023-04-21T22:56:24.334Z,96128.13
2023-04-21T22:58:52.091Z,96128.53
2023-04-21T23:01:19.944Z,96126.53
2023-04-21T23:03:47.579Z,96129.34
2023-04-21T23:06:15.199Z,96133.78
2023-04-21T23:08:42.707Z,96140.63
2023-04-21T23:11:11.576Z,96140.25
2023-04-21T23:13:39.812Z,96138.22
2023-04-21T23:16:07.682Z,96137.84
2023-04-21T23:18:35.850Z,96138.22
2023-04-21T23:21:03.549Z,96133.41
2023-04-21T23:23:31.281Z,96134.63
2023-04-21T23:25:59.303Z,96132.19
2023-04-21T23:28:28.209Z,96132.63
2023-04-21T23:30:55.786Z,96135.44
2023-04-21T23:33:23.558Z,96130.00
2023-04-21T23:35:52.080Z,96123.75
2023-04-21T23:38:19.588Z,96130.41
2023-04-21T23:40:47.208Z,96127.78
2023-04-21T23:43:14.822Z,96130.22
2023-04-21T23:45:43.828Z,96126.97
2023-04-21T23:48:11.733Z,96120.50
2023-04-21T23:50:39.401Z,96112.06
2023-04-21T23:53:07.064Z,96099.81
2023-04-21T23:55:34.717Z,96104.84
2023-04-21T23:58:02.247Z,96102.03
